JST328 YPDN-YBCS
Flight info
| Callsign | JST328 |
|---|---|
| Flight time | 2h 13m |
| Altitude | 39000 |
| Route | DN Y25 RUPEG DCT SOCAR J61 CS |
| Aircraft | A20N/M-SDE2E3FGHIRWXY/LB1 |
Departure
| Time | 2026-04-30 06:55 |
|---|---|
| Airport | Darwin International Airport / RAAF Darwin (YPDN) |
Arrival
| Time | 2026-04-30 09:08 |
|---|---|
| Airport | Cairns International Airport (YBCS) |
| Time | Latitude | Longitude | Altitude | Speed | Heading |
|---|---|---|---|---|---|
| 2026-04-30 06:25 | -12.40914 | 130.87834 | 96 ft | 0 kts | 9° |
| 2026-04-30 06:45 | -12.40925 | 130.87832 | 94 ft | 2 kts | 9° |
| 2026-04-30 06:45 | -12.40939 | 130.87830 | 96 ft | 2 kts | 9° |
| 2026-04-30 06:45 | -12.40952 | 130.87828 | 95 ft | 2 kts | 8° |
| 2026-04-30 06:45 | -12.40966 | 130.87828 | 95 ft | 2 kts | 337° |
| 2026-04-30 06:46 | -12.40978 | 130.87836 | 95 ft | 2 kts | 306° |
| 2026-04-30 06:46 | -12.40984 | 130.87848 | 95 ft | 0 kts | 278° |
| 2026-04-30 06:49 | -12.40984 | 130.87847 | 95 ft | 1 kts | 278° |
| 2026-04-30 06:49 | -12.40980 | 130.87817 | 96 ft | 8 kts | 278° |
| 2026-04-30 06:49 | -12.40967 | 130.87732 | 94 ft | 15 kts | 279° |
| 2026-04-30 06:49 | -12.40984 | 130.87619 | 94 ft | 17 kts | 227° |
| 2026-04-30 06:50 | -12.41088 | 130.87570 | 99 ft | 16 kts | 200° |
| 2026-04-30 06:50 | -12.41192 | 130.87533 | 101 ft | 16 kts | 198° |
| 2026-04-30 06:50 | -12.41307 | 130.87494 | 102 ft | 18 kts | 198° |
| 2026-04-30 06:50 | -12.41428 | 130.87451 | 104 ft | 19 kts | 203° |
| 2026-04-30 06:51 | -12.41494 | 130.87345 | 106 ft | 19 kts | 270° |
| 2026-04-30 06:51 | -12.41453 | 130.87211 | 104 ft | 21 kts | 290° |
| 2026-04-30 06:51 | -12.41400 | 130.87058 | 100 ft | 24 kts | 288° |
| 2026-04-30 06:51 | -12.41347 | 130.86896 | 102 ft | 22 kts | 288° |
| 2026-04-30 06:52 | -12.41301 | 130.86758 | 102 ft | 21 kts | 288° |
| 2026-04-30 06:52 | -12.41251 | 130.86608 | 103 ft | 22 kts | 289° |
| 2026-04-30 06:52 | -12.41166 | 130.86482 | 107 ft | 22 kts | 335° |
| 2026-04-30 06:52 | -12.41029 | 130.86501 | 111 ft | 19 kts | 20° |
| 2026-04-30 06:53 | -12.40955 | 130.86586 | 109 ft | 15 kts | 105° |
| 2026-04-30 06:53 | -12.40964 | 130.86614 | 109 ft | 0 kts | 109° |
| 2026-04-30 06:54 | -12.41021 | 130.86780 | 105 ft | 68 kts | 109° |
| 2026-04-30 06:54 | -12.41268 | 130.87521 | 102 ft | 145 kts | 109° |
| 2026-04-30 06:54 | -12.41664 | 130.88716 | 120 ft | 200 kts | 108° |
| 2026-04-30 06:55 | -12.42105 | 130.90059 | 890 ft | 202 kts | 108° |
| 2026-04-30 06:55 | -12.42544 | 130.91414 | 1991 ft | 202 kts | 108° |
| 2026-04-30 06:55 | -12.43021 | 130.92825 | 2759 ft | 219 kts | 109° |
| 2026-04-30 06:55 | -12.43550 | 130.94362 | 3357 ft | 239 kts | 109° |
| 2026-04-30 06:56 | -12.44127 | 130.96039 | 3943 ft | 260 kts | 109° |
| 2026-04-30 06:56 | -12.44735 | 130.97817 | 4786 ft | 267 kts | 109° |
| 2026-04-30 06:56 | -12.45350 | 130.99625 | 5752 ft | 271 kts | 109° |
| 2026-04-30 06:56 | -12.45972 | 131.01462 | 6704 ft | 275 kts | 109° |
| 2026-04-30 06:57 | -12.46603 | 131.03327 | 7645 ft | 279 kts | 109° |
| 2026-04-30 06:57 | -12.47240 | 131.05211 | 8554 ft | 283 kts | 109° |
| 2026-04-30 06:57 | -12.47879 | 131.07128 | 9454 ft | 286 kts | 108° |
| 2026-04-30 06:57 | -12.48520 | 131.09074 | 10333 ft | 291 kts | 108° |
| 2026-04-30 06:58 | -12.49185 | 131.11097 | 10799 ft | 312 kts | 108° |
| 2026-04-30 06:58 | -12.49902 | 131.13279 | 11095 ft | 335 kts | 108° |
| 2026-04-30 06:58 | -12.50650 | 131.15549 | 11706 ft | 344 kts | 108° |
| 2026-04-30 06:58 | -12.51417 | 131.17877 | 12532 ft | 347 kts | 108° |
| 2026-04-30 06:59 | -12.52198 | 131.20231 | 13314 ft | 351 kts | 109° |
| 2026-04-30 06:59 | -12.52992 | 131.22611 | 14064 ft | 355 kts | 109° |
| 2026-04-30 06:59 | -12.53796 | 131.25019 | 14814 ft | 359 kts | 109° |
| 2026-04-30 06:59 | -12.54608 | 131.27453 | 15529 ft | 363 kts | 109° |
| 2026-04-30 07:00 | -12.55428 | 131.29913 | 16228 ft | 367 kts | 109° |
| 2026-04-30 07:00 | -12.56255 | 131.32399 | 16913 ft | 371 kts | 109° |
| 2026-04-30 07:00 | -12.57091 | 131.34909 | 17573 ft | 375 kts | 109° |
| 2026-04-30 07:00 | -12.57935 | 131.37447 | 18220 ft | 378 kts | 109° |
| 2026-04-30 07:01 | -12.58787 | 131.40010 | 18847 ft | 382 kts | 109° |
| 2026-04-30 07:01 | -12.59646 | 131.42595 | 19461 ft | 386 kts | 109° |
| 2026-04-30 07:01 | -12.60513 | 131.45203 | 20058 ft | 389 kts | 109° |
| 2026-04-30 07:01 | -12.61388 | 131.47838 | 20637 ft | 393 kts | 109° |
| 2026-04-30 07:02 | -12.62272 | 131.50499 | 21214 ft | 396 kts | 109° |
| 2026-04-30 07:02 | -12.63162 | 131.53182 | 21772 ft | 400 kts | 109° |
| 2026-04-30 07:02 | -12.64058 | 131.55879 | 22314 ft | 403 kts | 109° |
| 2026-04-30 07:02 | -12.64965 | 131.58613 | 22851 ft | 406 kts | 109° |
| 2026-04-30 07:03 | -12.65878 | 131.61366 | 23371 ft | 409 kts | 109° |
| 2026-04-30 07:03 | -12.66795 | 131.64134 | 23879 ft | 413 kts | 109° |
| 2026-04-30 07:03 | -12.67708 | 131.66887 | 24365 ft | 416 kts | 109° |
| 2026-04-30 07:03 | -12.68641 | 131.69706 | 24841 ft | 419 kts | 109° |
| 2026-04-30 07:04 | -12.69579 | 131.72541 | 25305 ft | 422 kts | 109° |
| 2026-04-30 07:04 | -12.70524 | 131.75397 | 25752 ft | 425 kts | 109° |
| 2026-04-30 07:04 | -12.71475 | 131.78270 | 26187 ft | 428 kts | 109° |
| 2026-04-30 07:04 | -12.72431 | 131.81163 | 26611 ft | 431 kts | 109° |
| 2026-04-30 07:05 | -12.74366 | 131.87016 | 27395 ft | 436 kts | 108° |
| 2026-04-30 07:05 | -12.75343 | 131.89976 | 27780 ft | 438 kts | 108° |
| 2026-04-30 07:05 | -12.76323 | 131.92945 | 28143 ft | 441 kts | 108° |
| 2026-04-30 07:06 | -12.77307 | 131.95927 | 28495 ft | 443 kts | 108° |
| 2026-04-30 07:06 | -12.78295 | 131.98924 | 28836 ft | 446 kts | 108° |
| 2026-04-30 07:06 | -12.79290 | 132.01941 | 29158 ft | 448 kts | 108° |
| 2026-04-30 07:06 | -12.80289 | 132.04974 | 29482 ft | 450 kts | 108° |
| 2026-04-30 07:07 | -12.81279 | 132.07980 | 29778 ft | 452 kts | 108° |
| 2026-04-30 07:07 | -12.82287 | 132.11044 | 30080 ft | 455 kts | 108° |
| 2026-04-30 07:07 | -12.83299 | 132.14118 | 30400 ft | 457 kts | 108° |
| 2026-04-30 07:07 | -12.84316 | 132.17210 | 30701 ft | 459 kts | 108° |
| 2026-04-30 07:08 | -12.85337 | 132.20317 | 30991 ft | 461 kts | 108° |
| 2026-04-30 07:08 | -12.86362 | 132.23436 | 31333 ft | 462 kts | 108° |
| 2026-04-30 07:08 | -12.87384 | 132.26550 | 31725 ft | 461 kts | 108° |
| 2026-04-30 07:08 | -12.88406 | 132.29663 | 32113 ft | 460 kts | 108° |
| 2026-04-30 07:09 | -12.89426 | 132.32769 | 32488 ft | 459 kts | 108° |
| 2026-04-30 07:09 | -12.90444 | 132.35872 | 32851 ft | 458 kts | 108° |
| 2026-04-30 07:09 | -12.91458 | 132.38966 | 33199 ft | 458 kts | 108° |
| 2026-04-30 07:09 | -12.92470 | 132.42055 | 33540 ft | 457 kts | 108° |
| 2026-04-30 07:10 | -12.93481 | 132.45141 | 33857 ft | 456 kts | 108° |
| 2026-04-30 07:10 | -12.94491 | 132.48224 | 34167 ft | 456 kts | 108° |
| 2026-04-30 07:10 | -12.95500 | 132.51307 | 34470 ft | 455 kts | 108° |
| 2026-04-30 07:10 | -12.96505 | 132.54379 | 34759 ft | 454 kts | 108° |
| 2026-04-30 07:11 | -12.97509 | 132.57448 | 35041 ft | 454 kts | 108° |
| 2026-04-30 07:11 | -12.98512 | 132.60518 | 35309 ft | 453 kts | 108° |
| 2026-04-30 07:11 | -12.99511 | 132.63576 | 35568 ft | 453 kts | 108° |
| 2026-04-30 07:11 | -13.00511 | 132.66636 | 35816 ft | 452 kts | 108° |
| 2026-04-30 07:12 | -13.01509 | 132.69693 | 36051 ft | 452 kts | 108° |
| 2026-04-30 07:12 | -13.02505 | 132.72747 | 36278 ft | 451 kts | 108° |
| 2026-04-30 07:12 | -13.03501 | 132.75802 | 36480 ft | 451 kts | 108° |
| 2026-04-30 07:12 | -13.04498 | 132.78859 | 36687 ft | 451 kts | 108° |
| 2026-04-30 07:13 | -13.05493 | 132.81913 | 36871 ft | 451 kts | 108° |
| 2026-04-30 07:13 | -13.06486 | 132.84964 | 37057 ft | 451 kts | 108° |
| 2026-04-30 07:13 | -13.07481 | 132.88020 | 37225 ft | 452 kts | 108° |
| 2026-04-30 07:13 | -13.08478 | 132.91080 | 37404 ft | 451 kts | 108° |
| 2026-04-30 07:14 | -13.09471 | 132.94134 | 37569 ft | 451 kts | 108° |
| 2026-04-30 07:14 | -13.10451 | 132.97150 | 37733 ft | 451 kts | 108° |
| 2026-04-30 07:14 | -13.11447 | 133.00214 | 37855 ft | 452 kts | 108° |
| 2026-04-30 07:14 | -13.12443 | 133.03279 | 37988 ft | 453 kts | 108° |
| 2026-04-30 07:15 | -13.13436 | 133.06339 | 38145 ft | 452 kts | 108° |
| 2026-04-30 07:15 | -13.14428 | 133.09396 | 38263 ft | 453 kts | 108° |
| 2026-04-30 07:15 | -13.15425 | 133.12469 | 38403 ft | 453 kts | 108° |
| 2026-04-30 07:15 | -13.16419 | 133.15534 | 38524 ft | 453 kts | 108° |
| 2026-04-30 07:16 | -13.17414 | 133.18603 | 38632 ft | 453 kts | 108° |
| 2026-04-30 07:16 | -13.18074 | 133.20639 | 38713 ft | 454 kts | 108° |
| 2026-04-30 07:16 | -13.19069 | 133.23711 | 38835 ft | 453 kts | 108° |
| 2026-04-30 07:16 | -13.20397 | 133.27816 | 38983 ft | 453 kts | 108° |
| 2026-04-30 07:17 | -13.22383 | 133.33953 | 38999 ft | 452 kts | 108° |
| 2026-04-30 07:18 | -13.25020 | 133.42119 | 38999 ft | 453 kts | 108° |
| 2026-04-30 07:18 | -13.27002 | 133.48260 | 38997 ft | 453 kts | 108° |
| 2026-04-30 07:19 | -13.28971 | 133.54363 | 38997 ft | 453 kts | 108° |
| 2026-04-30 07:19 | -13.30947 | 133.60499 | 38998 ft | 453 kts | 108° |
| 2026-04-30 07:20 | -13.32921 | 133.66633 | 39002 ft | 452 kts | 108° |
| 2026-04-30 07:20 | -13.34892 | 133.72764 | 38998 ft | 452 kts | 108° |
| 2026-04-30 07:21 | -13.36861 | 133.78894 | 38988 ft | 452 kts | 108° |
| 2026-04-30 07:21 | -13.38827 | 133.85023 | 38999 ft | 452 kts | 108° |
| 2026-04-30 07:22 | -13.41774 | 133.94217 | 38993 ft | 452 kts | 108° |
| 2026-04-30 07:22 | -13.43739 | 134.00351 | 38993 ft | 452 kts | 108° |
| 2026-04-30 07:23 | -13.45703 | 134.06491 | 38997 ft | 452 kts | 108° |
| 2026-04-30 07:23 | -13.47650 | 134.12583 | 39000 ft | 452 kts | 108° |
| 2026-04-30 07:24 | -13.49610 | 134.18721 | 39008 ft | 452 kts | 108° |
| 2026-04-30 07:24 | -13.51570 | 134.24865 | 39013 ft | 452 kts | 108° |
| 2026-04-30 07:25 | -13.53529 | 134.31011 | 39008 ft | 452 kts | 108° |
| 2026-04-30 07:25 | -13.55485 | 134.37154 | 39013 ft | 453 kts | 108° |
| 2026-04-30 07:26 | -13.57444 | 134.43311 | 39005 ft | 453 kts | 108° |
| 2026-04-30 07:26 | -13.59398 | 134.49458 | 39008 ft | 452 kts | 108° |
| 2026-04-30 07:27 | -13.61349 | 134.55601 | 39006 ft | 452 kts | 108° |
| 2026-04-30 07:27 | -13.63289 | 134.61717 | 39011 ft | 452 kts | 108° |
| 2026-04-30 07:28 | -13.65240 | 134.67873 | 39008 ft | 452 kts | 108° |
| 2026-04-30 07:28 | -13.67186 | 134.74015 | 39003 ft | 451 kts | 108° |
| 2026-04-30 07:29 | -13.69126 | 134.80149 | 39004 ft | 451 kts | 108° |
| 2026-04-30 07:29 | -13.71068 | 134.86291 | 39001 ft | 451 kts | 108° |
| 2026-04-30 07:30 | -13.73973 | 134.95493 | 38996 ft | 451 kts | 108° |
| 2026-04-30 07:31 | -13.75906 | 135.01624 | 38996 ft | 451 kts | 108° |
| 2026-04-30 07:31 | -13.77840 | 135.07764 | 38999 ft | 451 kts | 108° |
| 2026-04-30 07:32 | -13.79771 | 135.13899 | 38998 ft | 451 kts | 108° |
| 2026-04-30 07:32 | -13.81688 | 135.19995 | 39003 ft | 451 kts | 108° |
| 2026-04-30 07:33 | -13.83617 | 135.26136 | 38995 ft | 451 kts | 108° |
| 2026-04-30 07:33 | -13.85544 | 135.32276 | 39006 ft | 451 kts | 108° |
| 2026-04-30 07:34 | -13.87469 | 135.38415 | 39001 ft | 451 kts | 108° |
| 2026-04-30 07:34 | -13.89392 | 135.44554 | 38997 ft | 451 kts | 108° |
| 2026-04-30 07:35 | -13.91317 | 135.50705 | 39002 ft | 451 kts | 108° |
| 2026-04-30 07:35 | -13.93240 | 135.56855 | 38998 ft | 451 kts | 108° |
| 2026-04-30 07:36 | -13.95163 | 135.63009 | 39005 ft | 451 kts | 108° |
| 2026-04-30 07:36 | -13.97085 | 135.69162 | 39002 ft | 451 kts | 108° |
| 2026-04-30 07:37 | -13.98996 | 135.75274 | 39003 ft | 451 kts | 108° |
| 2026-04-30 07:37 | -14.00920 | 135.81429 | 39002 ft | 451 kts | 108° |
| 2026-04-30 07:38 | -14.02840 | 135.87584 | 39007 ft | 451 kts | 108° |
| 2026-04-30 07:38 | -14.04759 | 135.93741 | 39004 ft | 451 kts | 108° |
| 2026-04-30 07:39 | -14.06676 | 135.99900 | 38999 ft | 451 kts | 108° |
| 2026-04-30 07:39 | -14.08589 | 136.06051 | 39003 ft | 451 kts | 108° |
| 2026-04-30 07:40 | -14.10503 | 136.12212 | 39000 ft | 451 kts | 108° |
| 2026-04-30 07:40 | -14.12401 | 136.18325 | 39001 ft | 451 kts | 108° |
| 2026-04-30 07:41 | -14.14321 | 136.24516 | 38996 ft | 451 kts | 107° |
| 2026-04-30 07:41 | -14.16213 | 136.30625 | 39001 ft | 450 kts | 107° |
| 2026-04-30 07:42 | -14.18111 | 136.36760 | 39003 ft | 450 kts | 107° |
| 2026-04-30 07:42 | -14.20016 | 136.42921 | 38997 ft | 450 kts | 107° |
| 2026-04-30 07:43 | -14.21914 | 136.49066 | 39001 ft | 450 kts | 107° |
| 2026-04-30 07:43 | -14.23812 | 136.55216 | 38992 ft | 450 kts | 107° |
| 2026-04-30 07:44 | -14.25707 | 136.61367 | 39000 ft | 450 kts | 107° |
| 2026-04-30 07:44 | -14.27601 | 136.67518 | 38996 ft | 450 kts | 107° |
| 2026-04-30 07:45 | -14.29493 | 136.73669 | 38996 ft | 450 kts | 107° |
| 2026-04-30 07:45 | -14.31384 | 136.79822 | 38999 ft | 450 kts | 107° |
| 2026-04-30 07:46 | -14.33273 | 136.85975 | 39003 ft | 450 kts | 107° |
| 2026-04-30 07:46 | -14.35161 | 136.92129 | 38998 ft | 450 kts | 107° |
| 2026-04-30 07:47 | -14.37050 | 136.98295 | 39000 ft | 450 kts | 107° |
| 2026-04-30 07:47 | -14.38936 | 137.04457 | 38996 ft | 451 kts | 107° |
| 2026-04-30 07:48 | -14.40821 | 137.10622 | 39001 ft | 451 kts | 107° |
| 2026-04-30 07:48 | -14.42705 | 137.16790 | 39007 ft | 451 kts | 107° |
| 2026-04-30 07:49 | -14.44588 | 137.22960 | 39009 ft | 451 kts | 107° |
| 2026-04-30 07:49 | -14.46456 | 137.29086 | 39001 ft | 451 kts | 107° |
| 2026-04-30 07:50 | -14.48335 | 137.35257 | 39003 ft | 451 kts | 107° |
| 2026-04-30 07:50 | -14.50213 | 137.41431 | 38999 ft | 451 kts | 107° |
| 2026-04-30 07:51 | -14.52088 | 137.47602 | 39002 ft | 451 kts | 107° |
| 2026-04-30 07:51 | -14.53965 | 137.53784 | 39003 ft | 451 kts | 107° |
| 2026-04-30 07:52 | -14.55835 | 137.59951 | 39009 ft | 451 kts | 107° |
| 2026-04-30 07:52 | -14.57711 | 137.66142 | 38998 ft | 451 kts | 107° |
| 2026-04-30 07:53 | -14.59579 | 137.72315 | 39000 ft | 451 kts | 107° |
| 2026-04-30 07:53 | -14.61447 | 137.78492 | 39002 ft | 450 kts | 107° |
| 2026-04-30 07:54 | -14.63309 | 137.84658 | 39001 ft | 450 kts | 107° |
| 2026-04-30 07:54 | -14.65164 | 137.90806 | 39004 ft | 450 kts | 107° |
| 2026-04-30 07:55 | -14.67025 | 137.96982 | 38996 ft | 450 kts | 107° |
| 2026-04-30 07:55 | -14.68884 | 138.03155 | 38993 ft | 450 kts | 107° |
| 2026-04-30 07:56 | -14.70741 | 138.09332 | 39001 ft | 450 kts | 107° |
| 2026-04-30 07:56 | -14.72599 | 138.15513 | 38996 ft | 450 kts | 107° |
| 2026-04-30 07:57 | -14.74451 | 138.21687 | 39002 ft | 450 kts | 107° |
| 2026-04-30 07:57 | -14.76307 | 138.27875 | 39005 ft | 450 kts | 107° |
| 2026-04-30 07:58 | -14.78145 | 138.34015 | 38995 ft | 450 kts | 107° |
| 2026-04-30 07:58 | -14.79995 | 138.40198 | 39003 ft | 450 kts | 107° |
| 2026-04-30 07:59 | -14.81844 | 138.46385 | 39001 ft | 450 kts | 107° |
| 2026-04-30 07:59 | -14.83692 | 138.52575 | 39004 ft | 450 kts | 107° |
| 2026-04-30 08:00 | -14.86458 | 138.61852 | 39004 ft | 450 kts | 107° |
| 2026-04-30 08:00 | -14.88208 | 138.67730 | 39002 ft | 451 kts | 107° |
| 2026-04-30 08:01 | -14.90051 | 138.73927 | 39002 ft | 451 kts | 107° |
| 2026-04-30 08:01 | -14.91881 | 138.80082 | 39003 ft | 451 kts | 107° |
| 2026-04-30 08:02 | -14.94641 | 138.89376 | 38997 ft | 451 kts | 107° |
| 2026-04-30 08:03 | -14.98010 | 139.00772 | 38999 ft | 451 kts | 107° |
| 2026-04-30 08:04 | -14.99842 | 139.06966 | 39000 ft | 451 kts | 107° |
| 2026-04-30 08:04 | -15.01673 | 139.13162 | 39003 ft | 451 kts | 107° |
| 2026-04-30 08:05 | -15.03490 | 139.19321 | 39001 ft | 450 kts | 107° |
| 2026-04-30 08:05 | -15.05319 | 139.25527 | 39006 ft | 450 kts | 107° |
| 2026-04-30 08:06 | -15.07144 | 139.31728 | 39002 ft | 450 kts | 107° |
| 2026-04-30 08:06 | -15.08967 | 139.37928 | 38997 ft | 450 kts | 107° |
| 2026-04-30 08:07 | -15.10790 | 139.44134 | 38999 ft | 450 kts | 107° |
| 2026-04-30 08:07 | -15.12609 | 139.50334 | 38996 ft | 450 kts | 107° |
| 2026-04-30 08:08 | -15.14429 | 139.56545 | 39000 ft | 450 kts | 107° |
| 2026-04-30 08:08 | -15.16245 | 139.62749 | 39001 ft | 450 kts | 107° |
| 2026-04-30 08:09 | -15.18060 | 139.68957 | 39004 ft | 450 kts | 107° |
| 2026-04-30 08:09 | -15.19873 | 139.75162 | 39002 ft | 450 kts | 107° |
| 2026-04-30 08:10 | -15.21686 | 139.81376 | 39000 ft | 450 kts | 107° |
| 2026-04-30 08:10 | -15.23485 | 139.87548 | 38996 ft | 450 kts | 106° |
| 2026-04-30 08:11 | -15.25293 | 139.93760 | 38996 ft | 450 kts | 106° |
| 2026-04-30 08:11 | -15.27100 | 139.99974 | 39003 ft | 450 kts | 106° |
| 2026-04-30 08:12 | -15.28904 | 140.06184 | 39004 ft | 450 kts | 106° |
| 2026-04-30 08:12 | -15.30707 | 140.12397 | 38998 ft | 450 kts | 106° |
| 2026-04-30 08:13 | -15.32509 | 140.18615 | 38999 ft | 450 kts | 106° |
| 2026-04-30 08:13 | -15.34308 | 140.24831 | 38999 ft | 450 kts | 106° |
| 2026-04-30 08:14 | -15.36107 | 140.31055 | 39002 ft | 450 kts | 106° |
| 2026-04-30 08:14 | -15.37905 | 140.37278 | 38998 ft | 451 kts | 106° |
| 2026-04-30 08:15 | -15.39700 | 140.43501 | 39005 ft | 450 kts | 106° |
| 2026-04-30 08:15 | -15.41493 | 140.49722 | 39003 ft | 450 kts | 106° |
| 2026-04-30 08:16 | -15.43269 | 140.55894 | 39002 ft | 450 kts | 106° |
| 2026-04-30 08:16 | -15.45065 | 140.62139 | 39005 ft | 450 kts | 106° |
| 2026-04-30 08:17 | -15.46852 | 140.68363 | 39004 ft | 450 kts | 106° |
| 2026-04-30 08:17 | -15.48638 | 140.74588 | 39003 ft | 450 kts | 106° |
| 2026-04-30 08:18 | -15.50421 | 140.80813 | 39004 ft | 450 kts | 106° |
| 2026-04-30 08:18 | -15.52201 | 140.87035 | 38995 ft | 450 kts | 106° |
| 2026-04-30 08:19 | -15.53979 | 140.93258 | 39003 ft | 450 kts | 106° |
| 2026-04-30 08:19 | -15.55760 | 140.99495 | 39000 ft | 450 kts | 106° |
| 2026-04-30 08:20 | -15.57536 | 141.05723 | 39006 ft | 450 kts | 106° |
| 2026-04-30 08:20 | -15.59313 | 141.11958 | 38996 ft | 450 kts | 106° |
| 2026-04-30 08:21 | -15.61074 | 141.18148 | 38996 ft | 450 kts | 106° |
| 2026-04-30 08:21 | -15.62847 | 141.24386 | 39003 ft | 450 kts | 106° |
| 2026-04-30 08:22 | -15.64617 | 141.30622 | 38999 ft | 450 kts | 106° |
| 2026-04-30 08:22 | -15.66386 | 141.36860 | 38997 ft | 450 kts | 106° |
| 2026-04-30 08:23 | -15.68153 | 141.43098 | 38994 ft | 450 kts | 106° |
| 2026-04-30 08:23 | -15.69918 | 141.49338 | 38997 ft | 450 kts | 106° |
| 2026-04-30 08:24 | -15.71668 | 141.55532 | 39000 ft | 450 kts | 106° |
| 2026-04-30 08:24 | -15.73428 | 141.61767 | 39004 ft | 450 kts | 106° |
| 2026-04-30 08:25 | -15.75190 | 141.68017 | 39000 ft | 450 kts | 106° |
| 2026-04-30 08:25 | -15.76947 | 141.74258 | 39004 ft | 450 kts | 106° |
| 2026-04-30 08:26 | -15.78704 | 141.80507 | 39003 ft | 450 kts | 106° |
| 2026-04-30 08:26 | -15.80459 | 141.86750 | 38999 ft | 450 kts | 106° |
| 2026-04-30 08:27 | -15.82212 | 141.92993 | 38999 ft | 450 kts | 106° |
| 2026-04-30 08:27 | -15.83958 | 141.99240 | 39001 ft | 450 kts | 106° |
| 2026-04-30 08:28 | -15.85703 | 142.05492 | 39001 ft | 450 kts | 106° |
| 2026-04-30 08:28 | -15.87446 | 142.11739 | 38994 ft | 451 kts | 106° |
| 2026-04-30 08:29 | -15.89190 | 142.17993 | 39003 ft | 451 kts | 106° |
| 2026-04-30 08:29 | -15.90931 | 142.24248 | 38995 ft | 451 kts | 106° |
| 2026-04-30 08:30 | -15.92672 | 142.30510 | 38994 ft | 451 kts | 106° |
| 2026-04-30 08:30 | -15.94400 | 142.36730 | 38994 ft | 451 kts | 106° |
| 2026-04-30 08:31 | -15.96138 | 142.42996 | 39000 ft | 451 kts | 105° |
| 2026-04-30 08:31 | -15.97872 | 142.49255 | 38998 ft | 451 kts | 105° |
| 2026-04-30 08:32 | -15.99605 | 142.55518 | 39003 ft | 451 kts | 105° |
| 2026-04-30 08:32 | -16.01336 | 142.61782 | 39000 ft | 451 kts | 105° |
| 2026-04-30 08:33 | -16.03053 | 142.68003 | 39001 ft | 451 kts | 105° |
| 2026-04-30 08:33 | -16.04783 | 142.74276 | 38998 ft | 451 kts | 105° |
| 2026-04-30 08:34 | -16.06508 | 142.80541 | 38994 ft | 451 kts | 105° |
| 2026-04-30 08:34 | -16.08232 | 142.86810 | 39004 ft | 451 kts | 105° |
| 2026-04-30 08:35 | -16.09954 | 142.93079 | 38994 ft | 451 kts | 105° |
| 2026-04-30 08:35 | -16.11675 | 142.99353 | 39004 ft | 451 kts | 105° |
| 2026-04-30 08:36 | -16.13394 | 143.05626 | 38996 ft | 451 kts | 105° |
| 2026-04-30 08:36 | -16.15111 | 143.11902 | 39002 ft | 451 kts | 105° |
| 2026-04-30 08:37 | -16.16827 | 143.18181 | 38998 ft | 451 kts | 105° |
| 2026-04-30 08:37 | -16.18529 | 143.24413 | 38994 ft | 451 kts | 105° |
| 2026-04-30 08:38 | -16.20240 | 143.30694 | 39005 ft | 451 kts | 105° |
| 2026-04-30 08:38 | -16.21952 | 143.36981 | 39005 ft | 451 kts | 105° |
| 2026-04-30 08:39 | -16.23659 | 143.43261 | 39002 ft | 451 kts | 105° |
| 2026-04-30 08:39 | -16.25367 | 143.49547 | 39000 ft | 451 kts | 105° |
| 2026-04-30 08:40 | -16.27071 | 143.55830 | 38995 ft | 451 kts | 105° |
| 2026-04-30 08:40 | -16.28773 | 143.62115 | 38997 ft | 451 kts | 105° |
| 2026-04-30 08:41 | -16.30475 | 143.68406 | 38933 ft | 452 kts | 105° |
| 2026-04-30 08:41 | -16.31314 | 143.71509 | 38690 ft | 451 kts | 105° |
| 2026-04-30 08:41 | -16.32173 | 143.74689 | 38438 ft | 450 kts | 105° |
| 2026-04-30 08:41 | -16.33019 | 143.77825 | 38189 ft | 450 kts | 105° |
| 2026-04-30 08:42 | -16.33854 | 143.80918 | 37940 ft | 450 kts | 105° |
| 2026-04-30 08:42 | -16.34699 | 143.84056 | 37696 ft | 450 kts | 105° |
| 2026-04-30 08:42 | -16.35545 | 143.87195 | 37447 ft | 450 kts | 105° |
| 2026-04-30 08:42 | -16.36390 | 143.90332 | 37199 ft | 450 kts | 105° |
| 2026-04-30 08:43 | -16.37234 | 143.93470 | 36950 ft | 450 kts | 105° |
| 2026-04-30 08:43 | -16.38078 | 143.96610 | 36701 ft | 450 kts | 105° |
| 2026-04-30 08:43 | -16.38922 | 143.99752 | 36271 ft | 452 kts | 105° |
| 2026-04-30 08:43 | -16.39769 | 144.02908 | 35557 ft | 455 kts | 105° |
| 2026-04-30 08:44 | -16.40629 | 144.06114 | 34644 ft | 460 kts | 105° |
| 2026-04-30 08:44 | -16.41488 | 144.09320 | 33904 ft | 460 kts | 105° |
| 2026-04-30 08:44 | -16.42349 | 144.12531 | 33110 ft | 461 kts | 105° |
| 2026-04-30 08:44 | -16.43211 | 144.15754 | 32220 ft | 463 kts | 105° |
| 2026-04-30 08:45 | -16.44079 | 144.18997 | 31319 ft | 465 kts | 105° |
| 2026-04-30 08:45 | -16.44937 | 144.22206 | 30426 ft | 467 kts | 105° |
| 2026-04-30 08:45 | -16.45809 | 144.25471 | 29493 ft | 469 kts | 105° |
| 2026-04-30 08:45 | -16.46695 | 144.28791 | 28508 ft | 470 kts | 105° |
| 2026-04-30 08:46 | -16.47571 | 144.32077 | 27511 ft | 472 kts | 105° |
| 2026-04-30 08:46 | -16.48439 | 144.35332 | 26479 ft | 474 kts | 105° |
| 2026-04-30 08:46 | -16.49333 | 144.38686 | 25367 ft | 475 kts | 105° |
| 2026-04-30 08:46 | -16.50207 | 144.41972 | 24234 ft | 477 kts | 105° |
| 2026-04-30 08:47 | -16.51104 | 144.45342 | 23249 ft | 475 kts | 105° |
| 2026-04-30 08:47 | -16.51968 | 144.48589 | 22416 ft | 469 kts | 105° |
| 2026-04-30 08:47 | -16.52847 | 144.51895 | 21563 ft | 463 kts | 105° |
| 2026-04-30 08:47 | -16.53690 | 144.55069 | 20739 ft | 458 kts | 105° |
| 2026-04-30 08:48 | -16.54533 | 144.58245 | 19907 ft | 452 kts | 105° |
| 2026-04-30 08:48 | -16.55368 | 144.61391 | 19064 ft | 447 kts | 105° |
| 2026-04-30 08:48 | -16.56190 | 144.64492 | 18260 ft | 442 kts | 105° |
| 2026-04-30 08:48 | -16.57004 | 144.67562 | 17455 ft | 436 kts | 105° |
| 2026-04-30 08:49 | -16.57804 | 144.70585 | 16650 ft | 431 kts | 105° |
| 2026-04-30 08:49 | -16.58600 | 144.73593 | 15841 ft | 426 kts | 105° |
| 2026-04-30 08:49 | -16.59384 | 144.76556 | 15030 ft | 422 kts | 105° |
| 2026-04-30 08:49 | -16.60157 | 144.79483 | 14229 ft | 417 kts | 105° |
| 2026-04-30 08:50 | -16.60921 | 144.82375 | 13423 ft | 412 kts | 105° |
| 2026-04-30 08:50 | -16.61680 | 144.85247 | 12626 ft | 407 kts | 105° |
| 2026-04-30 08:50 | -16.62390 | 144.88093 | 11829 ft | 403 kts | 101° |
| 2026-04-30 08:50 | -16.62689 | 144.89995 | 11303 ft | 400 kts | 96° |
| 2026-04-30 08:51 | -16.62760 | 144.93843 | 10248 ft | 395 kts | 85° |
| 2026-04-30 08:51 | -16.62549 | 144.95704 | 9745 ft | 392 kts | 82° |
| 2026-04-30 08:51 | -16.62164 | 144.98515 | 8977 ft | 388 kts | 81° |
| 2026-04-30 08:51 | -16.61662 | 145.02178 | 8067 ft | 381 kts | 82° |
| 2026-04-30 08:52 | -16.61311 | 145.04851 | 8024 ft | 363 kts | 82° |
| 2026-04-30 08:52 | -16.60988 | 145.07396 | 7906 ft | 347 kts | 82° |
| 2026-04-30 08:52 | -16.60782 | 145.09056 | 7801 ft | 336 kts | 82° |
| 2026-04-30 08:52 | -16.60493 | 145.11422 | 7654 ft | 321 kts | 82° |
| 2026-04-30 08:53 | -16.60132 | 145.14394 | 7473 ft | 303 kts | 82° |
| 2026-04-30 08:53 | -16.59957 | 145.15846 | 7393 ft | 294 kts | 82° |
| 2026-04-30 08:53 | -16.59706 | 145.17913 | 7249 ft | 282 kts | 82° |
| 2026-04-30 08:53 | -16.59462 | 145.19923 | 7000 ft | 276 kts | 82° |
| 2026-04-30 08:54 | -16.59216 | 145.21927 | 6876 ft | 281 kts | 82° |
| 2026-04-30 08:54 | -16.58970 | 145.23932 | 6771 ft | 274 kts | 82° |
| 2026-04-30 08:54 | -16.58734 | 145.25853 | 6590 ft | 268 kts | 82° |
| 2026-04-30 08:54 | -16.58497 | 145.27778 | 6446 ft | 271 kts | 82° |
| 2026-04-30 08:55 | -16.58257 | 145.29713 | 6387 ft | 266 kts | 82° |
| 2026-04-30 08:55 | -16.58025 | 145.31589 | 6314 ft | 256 kts | 82° |
| 2026-04-30 08:55 | -16.57801 | 145.33397 | 6210 ft | 246 kts | 82° |
| 2026-04-30 08:55 | -16.57585 | 145.35144 | 6006 ft | 240 kts | 82° |
| 2026-04-30 08:56 | -16.57368 | 145.36891 | 5888 ft | 244 kts | 82° |
| 2026-04-30 08:56 | -16.57151 | 145.38637 | 5759 ft | 242 kts | 82° |
| 2026-04-30 08:56 | -16.56935 | 145.40376 | 5634 ft | 242 kts | 82° |
| 2026-04-30 08:56 | -16.56717 | 145.42122 | 5508 ft | 242 kts | 82° |
| 2026-04-30 08:57 | -16.56504 | 145.43834 | 5385 ft | 240 kts | 82° |
| 2026-04-30 08:57 | -16.56288 | 145.45559 | 5260 ft | 240 kts | 82° |
| 2026-04-30 08:57 | -16.56073 | 145.47281 | 5135 ft | 239 kts | 82° |
| 2026-04-30 08:57 | -16.55858 | 145.49000 | 5010 ft | 239 kts | 82° |
| 2026-04-30 08:58 | -16.55643 | 145.50713 | 4951 ft | 238 kts | 82° |
| 2026-04-30 08:58 | -16.55429 | 145.52421 | 4947 ft | 233 kts | 82° |
| 2026-04-30 08:58 | -16.55227 | 145.54030 | 4945 ft | 216 kts | 82° |
| 2026-04-30 08:58 | -16.55031 | 145.55597 | 4954 ft | 219 kts | 82° |
| 2026-04-30 08:59 | -16.54834 | 145.57165 | 4953 ft | 218 kts | 82° |
| 2026-04-30 08:59 | -16.54743 | 145.58732 | 4947 ft | 217 kts | 101° |
| 2026-04-30 08:59 | -16.55445 | 145.60088 | 4958 ft | 217 kts | 141° |
| 2026-04-30 08:59 | -16.56740 | 145.60892 | 4950 ft | 217 kts | 156° |
| 2026-04-30 09:00 | -16.58134 | 145.61481 | 4964 ft | 216 kts | 159° |
| 2026-04-30 09:00 | -16.59479 | 145.62059 | 4946 ft | 198 kts | 157° |
| 2026-04-30 09:00 | -16.60677 | 145.62600 | 4946 ft | 177 kts | 157° |
| 2026-04-30 09:00 | -16.61732 | 145.63079 | 4944 ft | 158 kts | 156° |
| 2026-04-30 09:01 | -16.62725 | 145.63529 | 4921 ft | 158 kts | 156° |
| 2026-04-30 09:01 | -16.63720 | 145.63980 | 4776 ft | 155 kts | 156° |
| 2026-04-30 09:01 | -16.64706 | 145.64426 | 4590 ft | 154 kts | 156° |
| 2026-04-30 09:01 | -16.65691 | 145.64873 | 4394 ft | 154 kts | 156° |
| 2026-04-30 09:02 | -16.67648 | 145.65760 | 3990 ft | 153 kts | 156° |
| 2026-04-30 09:02 | -16.68623 | 145.66202 | 3805 ft | 152 kts | 156° |
| 2026-04-30 09:02 | -16.69592 | 145.66641 | 3602 ft | 152 kts | 156° |
| 2026-04-30 09:03 | -16.70565 | 145.67082 | 3401 ft | 152 kts | 156° |
| 2026-04-30 09:03 | -16.71529 | 145.67520 | 3196 ft | 151 kts | 156° |
| 2026-04-30 09:03 | -16.72494 | 145.67957 | 3001 ft | 151 kts | 156° |
| 2026-04-30 09:03 | -16.73456 | 145.68394 | 2792 ft | 150 kts | 156° |
| 2026-04-30 09:04 | -16.74413 | 145.68828 | 2601 ft | 150 kts | 156° |
| 2026-04-30 09:04 | -16.75367 | 145.69260 | 2403 ft | 149 kts | 156° |
| 2026-04-30 09:04 | -16.76314 | 145.69689 | 2214 ft | 144 kts | 156° |
| 2026-04-30 09:04 | -16.77195 | 145.70089 | 2014 ft | 134 kts | 156° |
| 2026-04-30 09:05 | -16.78050 | 145.70478 | 1845 ft | 136 kts | 156° |
| 2026-04-30 09:05 | -16.78923 | 145.70874 | 1665 ft | 135 kts | 156° |
| 2026-04-30 09:05 | -16.79784 | 145.71263 | 1481 ft | 135 kts | 156° |
| 2026-04-30 09:05 | -16.80630 | 145.71647 | 1306 ft | 134 kts | 156° |
| 2026-04-30 09:06 | -16.81486 | 145.72035 | 1120 ft | 134 kts | 156° |
| 2026-04-30 09:06 | -16.82340 | 145.72422 | 948 ft | 133 kts | 156° |
| 2026-04-30 09:06 | -16.83190 | 145.72808 | 773 ft | 133 kts | 156° |
| 2026-04-30 09:06 | -16.84037 | 145.73192 | 597 ft | 133 kts | 156° |
| 2026-04-30 09:07 | -16.84885 | 145.73577 | 412 ft | 132 kts | 156° |
| 2026-04-30 09:07 | -16.85726 | 145.73959 | 245 ft | 132 kts | 156° |
| 2026-04-30 09:07 | -16.86568 | 145.74340 | 71 ft | 131 kts | 156° |
| 2026-04-30 09:07 | -16.87356 | 145.74696 | 13 ft | 83 kts | 156° |
| 2026-04-30 09:08 | -16.87623 | 145.74822 | 17 ft | 30 kts | 154° |
| 2026-04-30 09:08 | -16.87715 | 145.74921 | 14 ft | 17 kts | 87° |
| 2026-04-30 09:08 | -16.87670 | 145.75043 | 12 ft | 15 kts | 66° |
| 2026-04-30 09:08 | -16.87659 | 145.75141 | 12 ft | 9 kts | 133° |
| 2026-04-30 09:09 | -16.87719 | 145.75165 | 12 ft | 11 kts | 160° |
| 2026-04-30 09:09 | -16.87804 | 145.75198 | 11 ft | 15 kts | 160° |
| 2026-04-30 09:09 | -16.87870 | 145.75235 | 10 ft | 4 kts | 123° |
| 2026-04-30 09:09 | -16.87881 | 145.75283 | 10 ft | 9 kts | 90° |
| 2026-04-30 09:10 | -16.87863 | 145.75324 | 10 ft | 1 kts | 61° |
| 2026-04-30 09:10 | -16.87859 | 145.75331 | 10 ft | 0 kts | 61° |
| 2026-04-30 09:11 | -16.87863 | 145.75325 | 10 ft | 2 kts | 64° |
| 2026-04-30 09:11 | -16.87862 | 145.75329 | 10 ft | 2 kts | 72° |
| 2026-04-30 09:11 | -16.87862 | 145.75332 | 10 ft | 0 kts | 79° |